sensor_id;sensor_type;location;lat;lon;timestamp;P1;durP1;ratioP1;P2;durP2;ratioP2
27758;SDS011;15148;48.972;12.794;2023-04-10T00:00:11;12.40;;;11.10;;
27758;SDS011;15148;48.972;12.794;2023-04-10T00:05:13;13.07;;;11.35;;
27758;SDS011;15148;48.972;12.794;2023-04-10T00:10:16;11.93;;;10.48;;
27758;SDS011;15148;48.972;12.794;2023-04-10T00:15:18;14.20;;;11.68;;
27758;SDS011;15148;48.972;12.794;2023-04-10T00:20:20;12.25;;;10.68;;
27758;SDS011;15148;48.972;12.794;2023-04-10T00:25:26;12.73;;;10.40;;
27758;SDS011;15148;48.972;12.794;2023-04-10T00:30:28;13.73;;;11.35;;
27758;SDS011;15148;48.972;12.794;2023-04-10T00:35:30;11.55;;;10.25;;
27758;SDS011;15148;48.972;12.794;2023-04-10T00:40:32;13.77;;;11.70;;
27758;SDS011;15148;48.972;12.794;2023-04-10T00:45:34;13.30;;;11.90;;
27758;SDS011;15148;48.972;12.794;2023-04-10T00:50:37;15.50;;;12.15;;
27758;SDS011;15148;48.972;12.794;2023-04-10T00:55:38;12.50;;;11.20;;
27758;SDS011;15148;48.972;12.794;2023-04-10T01:00:41;12.68;;;11.27;;
27758;SDS011;15148;48.972;12.794;2023-04-10T01:05:43;12.23;;;10.73;;
27758;SDS011;15148;48.972;12.794;2023-04-10T01:11:07;10.90;;;9.40;;
27758;SDS011;15148;48.972;12.794;2023-04-10T01:16:15;12.00;;;10.70;;
27758;SDS011;15148;48.972;12.794;2023-04-10T01:21:20;13.60;;;10.95;;
27758;SDS011;15148;48.972;12.794;2023-04-10T01:26:31;12.05;;;10.75;;
27758;SDS011;15148;48.972;12.794;2023-04-10T01:37:03;11.85;;;10.65;;
27758;SDS011;15148;48.972;12.794;2023-04-10T01:42:09;12.70;;;10.75;;
27758;SDS011;15148;48.972;12.794;2023-04-10T01:47:15;11.30;;;9.50;;
27758;SDS011;15148;48.972;12.794;2023-04-10T01:52:18;13.02;;;10.15;;
27758;SDS011;15148;48.972;12.794;2023-04-10T01:57:31;12.45;;;9.85;;
27758;SDS011;15148;48.972;12.794;2023-04-10T02:02:36;12.63;;;10.77;;
27758;SDS011;15148;48.972;12.794;2023-04-10T02:07:41;11.48;;;10.07;;
27758;SDS011;15148;48.972;12.794;2023-04-10T02:13:04;12.00;;;10.20;;
27758;SDS011;15148;48.972;12.794;2023-04-10T02:18:07;12.27;;;10.43;;
27758;SDS011;15148;48.972;12.794;2023-04-10T02:23:11;12.13;;;9.73;;
27758;SDS011;15148;48.972;12.794;2023-04-10T02:28:16;13.45;;;10.48;;
27758;SDS011;15148;48.972;12.794;2023-04-10T02:33:18;12.30;;;10.25;;
27758;SDS011;15148;48.972;12.794;2023-04-10T02:38:20;14.38;;;10.48;;
27758;SDS011;15148;48.972;12.794;2023-04-10T02:43:22;12.90;;;11.20;;
27758;SDS011;15148;48.972;12.794;2023-04-10T02:48:24;11.10;;;9.70;;
27758;SDS011;15148;48.972;12.794;2023-04-10T02:53:32;12.60;;;10.47;;
27758;SDS011;15148;48.972;12.794;2023-04-10T02:58:35;12.80;;;10.88;;
27758;SDS011;15148;48.972;12.794;2023-04-10T03:03:38;12.95;;;11.48;;
27758;SDS011;15148;48.972;12.794;2023-04-10T03:08:40;11.88;;;10.45;;
27758;SDS011;15148;48.972;12.794;2023-04-10T03:13:43;16.10;;;13.40;;
27758;SDS011;15148;48.972;12.794;2023-04-10T03:18:45;14.18;;;11.65;;
27758;SDS011;15148;48.972;12.794;2023-04-10T03:23:47;14.25;;;11.52;;
27758;SDS011;15148;48.972;12.794;2023-04-10T03:28:49;18.15;;;14.07;;
27758;SDS011;15148;48.972;12.794;2023-04-10T03:33:51;17.65;;;13.90;;
27758;SDS011;15148;48.972;12.794;2023-04-10T03:38:54;16.02;;;12.65;;
27758;SDS011;15148;48.972;12.794;2023-04-10T03:43:56;15.02;;;12.25;;
27758;SDS011;15148;48.972;12.794;2023-04-10T03:48:58;14.73;;;12.23;;
27758;SDS011;15148;48.972;12.794;2023-04-10T03:54:01;15.00;;;12.18;;
27758;SDS011;15148;48.972;12.794;2023-04-10T03:59:03;16.58;;;13.52;;
27758;SDS011;15148;48.972;12.794;2023-04-10T04:04:11;17.67;;;13.30;;
27758;SDS011;15148;48.972;12.794;2023-04-10T04:09:29;15.35;;;12.07;;
27758;SDS011;15148;48.972;12.794;2023-04-10T04:14:37;17.88;;;12.55;;
27758;SDS011;15148;48.972;12.794;2023-04-10T04:20:11;17.17;;;13.48;;
27758;SDS011;15148;48.972;12.794;2023-04-10T04:25:16;16.77;;;12.90;;
27758;SDS011;15148;48.972;12.794;2023-04-10T04:30:38;14.73;;;12.52;;
27758;SDS011;15148;48.972;12.794;2023-04-10T04:36:03;16.55;;;12.52;;
27758;SDS011;15148;48.972;12.794;2023-04-10T04:41:23;15.77;;;11.93;;
27758;SDS011;15148;48.972;12.794;2023-04-10T04:46:40;15.70;;;12.53;;
27758;SDS011;15148;48.972;12.794;2023-04-10T04:52:07;14.70;;;11.90;;
27758;SDS011;15148;48.972;12.794;2023-04-10T04:57:19;14.40;;;11.55;;
27758;SDS011;15148;48.972;12.794;2023-04-10T05:02:37;16.30;;;12.95;;
27758;SDS011;15148;48.972;12.794;2023-04-10T05:08:02;17.20;;;12.55;;
27758;SDS011;15148;48.972;12.794;2023-04-10T05:13:14;22.60;;;17.05;;
27758;SDS011;15148;48.972;12.794;2023-04-10T05:18:37;16.63;;;12.73;;
27758;SDS011;15148;48.972;12.794;2023-04-10T05:23:54;19.52;;;14.45;;
27758;SDS011;15148;48.972;12.794;2023-04-10T05:29:04;17.70;;;13.77;;
27758;SDS011;15148;48.972;12.794;2023-04-10T05:34:19;16.08;;;13.73;;
27758;SDS011;15148;48.972;12.794;2023-04-10T05:39:36;13.80;;;11.68;;
27758;SDS011;15148;48.972;12.794;2023-04-10T05:45:13;13.95;;;11.73;;
27758;SDS011;15148;48.972;12.794;2023-04-10T05:50:35;13.55;;;11.52;;
27758;SDS011;15148;48.972;12.794;2023-04-10T05:56:05;14.10;;;11.10;;
27758;SDS011;15148;48.972;12.794;2023-04-10T06:01:15;12.85;;;11.35;;
27758;SDS011;15148;48.972;12.794;2023-04-10T06:06:33;13.88;;;11.98;;
27758;SDS011;15148;48.972;12.794;2023-04-10T06:11:35;12.60;;;10.98;;
27758;SDS011;15148;48.972;12.794;2023-04-10T06:16:37;13.63;;;11.98;;
27758;SDS011;15148;48.972;12.794;2023-04-10T06:21:39;15.23;;;11.52;;
27758;SDS011;15148;48.972;12.794;2023-04-10T06:26:41;13.15;;;11.75;;
27758;SDS011;15148;48.972;12.794;2023-04-10T06:31:43;12.95;;;11.25;;
27758;SDS011;15148;48.972;12.794;2023-04-10T06:36:46;16.55;;;13.93;;
27758;SDS011;15148;48.972;12.794;2023-04-10T06:41:48;16.73;;;13.40;;
27758;SDS011;15148;48.972;12.794;2023-04-10T06:47:05;19.83;;;16.13;;
27758;SDS011;15148;48.972;12.794;2023-04-10T06:52:09;18.85;;;15.65;;
27758;SDS011;15148;48.972;12.794;2023-04-10T06:57:11;16.63;;;13.65;;
27758;SDS011;15148;48.972;12.794;2023-04-10T07:02:13;18.45;;;15.50;;
27758;SDS011;15148;48.972;12.794;2023-04-10T07:07:15;19.58;;;17.45;;
27758;SDS011;15148;48.972;12.794;2023-04-10T07:12:19;18.85;;;16.73;;
27758;SDS011;15148;48.972;12.794;2023-04-10T07:17:21;17.00;;;15.00;;
27758;SDS011;15148;48.972;12.794;2023-04-10T07:22:22;20.08;;;16.20;;
27758;SDS011;15148;48.972;12.794;2023-04-10T07:27:24;17.77;;;15.52;;
27758;SDS011;15148;48.972;12.794;2023-04-10T07:32:26;19.75;;;16.33;;
27758;SDS011;15148;48.972;12.794;2023-04-10T07:37:28;17.30;;;15.00;;
27758;SDS011;15148;48.972;12.794;2023-04-10T07:42:30;16.27;;;14.32;;
27758;SDS011;15148;48.972;12.794;2023-04-10T07:47:32;17.42;;;15.27;;
27758;SDS011;15148;48.972;12.794;2023-04-10T07:52:34;19.48;;;15.82;;
27758;SDS011;15148;48.972;12.794;2023-04-10T07:57:36;14.88;;;12.82;;
27758;SDS011;15148;48.972;12.794;2023-04-10T08:02:38;16.98;;;14.05;;
27758;SDS011;15148;48.972;12.794;2023-04-10T08:07:41;15.45;;;13.35;;
27758;SDS011;15148;48.972;12.794;2023-04-10T08:12:43;13.85;;;12.25;;
27758;SDS011;15148;48.972;12.794;2023-04-10T08:17:45;13.80;;;12.32;;
27758;SDS011;15148;48.972;12.794;2023-04-10T08:22:46;18.02;;;14.40;;
27758;SDS011;15148;48.972;12.794;2023-04-10T08:27:48;18.30;;;14.10;;
27758;SDS011;15148;48.972;12.794;2023-04-10T08:32:50;15.60;;;13.80;;
27758;SDS011;15148;48.972;12.794;2023-04-10T08:37:52;19.75;;;15.13;;
27758;SDS011;15148;48.972;12.794;2023-04-10T08:43:14;18.08;;;14.82;;
27758;SDS011;15148;48.972;12.794;2023-04-10T08:48:15;16.35;;;14.13;;
27758;SDS011;15148;48.972;12.794;2023-04-10T08:53:20;15.80;;;14.00;;
27758;SDS011;15148;48.972;12.794;2023-04-10T08:58:26;17.73;;;15.27;;
27758;SDS011;15148;48.972;12.794;2023-04-10T09:03:28;15.48;;;13.40;;
27758;SDS011;15148;48.972;12.794;2023-04-10T09:08:31;16.00;;;14.18;;
27758;SDS011;15148;48.972;12.794;2023-04-10T09:13:38;14.23;;;12.73;;
27758;SDS011;15148;48.972;12.794;2023-04-10T09:18:48;16.10;;;14.05;;
27758;SDS011;15148;48.972;12.794;2023-04-10T09:23:58;14.20;;;12.55;;
27758;SDS011;15148;48.972;12.794;2023-04-10T09:29:02;14.68;;;13.02;;
27758;SDS011;15148;48.972;12.794;2023-04-10T09:34:15;15.68;;;13.32;;
27758;SDS011;15148;48.972;12.794;2023-04-10T09:39:18;15.95;;;14.10;;
27758;SDS011;15148;48.972;12.794;2023-04-10T09:44:30;13.60;;;12.00;;
27758;SDS011;15148;48.972;12.794;2023-04-10T09:49:43;17.30;;;13.60;;
27758;SDS011;15148;48.972;12.794;2023-04-10T09:54:56;15.32;;;13.00;;
27758;SDS011;15148;48.972;12.794;2023-04-10T09:59:59;15.48;;;13.85;;
27758;SDS011;15148;48.972;12.794;2023-04-10T10:05:06;16.63;;;14.43;;
27758;SDS011;15148;48.972;12.794;2023-04-10T10:10:08;15.90;;;13.45;;
27758;SDS011;15148;48.972;12.794;2023-04-10T10:15:17;14.25;;;12.52;;
27758;SDS011;15148;48.972;12.794;2023-04-10T10:20:34;15.07;;;12.80;;
27758;SDS011;15148;48.972;12.794;2023-04-10T10:25:39;14.38;;;12.88;;
27758;SDS011;15148;48.972;12.794;2023-04-10T10:30:43;13.55;;;11.43;;
27758;SDS011;15148;48.972;12.794;2023-04-10T10:35:46;12.80;;;10.70;;
27758;SDS011;15148;48.972;12.794;2023-04-10T10:41:34;11.63;;;10.40;;
27758;SDS011;15148;48.972;12.794;2023-04-10T10:46:40;12.48;;;10.23;;
27758;SDS011;15148;48.972;12.794;2023-04-10T10:51:48;11.77;;;10.57;;
27758;SDS011;15148;48.972;12.794;2023-04-10T10:56:51;9.65;;;8.63;;
27758;SDS011;15148;48.972;12.794;2023-04-10T11:07:17;13.18;;;11.25;;
27758;SDS011;15148;48.972;12.794;2023-04-10T11:12:21;15.05;;;11.40;;
27758;SDS011;15148;48.972;12.794;2023-04-10T11:17:44;12.77;;;10.07;;
27758;SDS011;15148;48.972;12.794;2023-04-10T11:23:06;10.23;;;9.13;;
27758;SDS011;15148;48.972;12.794;2023-04-10T11:28:22;9.35;;;8.38;;
27758;SDS011;15148;48.972;12.794;2023-04-10T11:33:32;9.07;;;8.18;;
27758;SDS011;15148;48.972;12.794;2023-04-10T11:38:33;9.30;;;8.05;;
27758;SDS011;15148;48.972;12.794;2023-04-10T11:43:36;8.65;;;7.75;;
27758;SDS011;15148;48.972;12.794;2023-04-10T11:48:38;8.52;;;7.57;;
27758;SDS011;15148;48.972;12.794;2023-04-10T11:53:40;6.97;;;6.32;;
27758;SDS011;15148;48.972;12.794;2023-04-10T11:58:42;8.85;;;7.78;;
27758;SDS011;15148;48.972;12.794;2023-04-10T12:03:44;9.60;;;8.40;;
27758;SDS011;15148;48.972;12.794;2023-04-10T12:08:47;7.80;;;7.05;;
27758;SDS011;15148;48.972;12.794;2023-04-10T12:13:52;8.00;;;7.05;;
27758;SDS011;15148;48.972;12.794;2023-04-10T12:18:55;7.90;;;6.85;;
27758;SDS011;15148;48.972;12.794;2023-04-10T12:23:58;8.73;;;7.50;;
27758;SDS011;15148;48.972;12.794;2023-04-10T12:28:59;8.80;;;7.90;;
27758;SDS011;15148;48.972;12.794;2023-04-10T12:34:02;8.80;;;6.80;;
27758;SDS011;15148;48.972;12.794;2023-04-10T12:39:19;7.72;;;6.97;;
27758;SDS011;15148;48.972;12.794;2023-04-10T12:44:22;9.75;;;8.23;;
27758;SDS011;15148;48.972;12.794;2023-04-10T12:49:24;8.70;;;7.47;;
27758;SDS011;15148;48.972;12.794;2023-04-10T12:54:33;8.10;;;6.93;;
27758;SDS011;15148;48.972;12.794;2023-04-10T12:59:36;8.45;;;6.68;;
27758;SDS011;15148;48.972;12.794;2023-04-10T13:04:39;9.77;;;7.43;;
27758;SDS011;15148;48.972;12.794;2023-04-10T13:09:41;7.10;;;6.30;;
27758;SDS011;15148;48.972;12.794;2023-04-10T13:14:43;8.15;;;7.35;;
27758;SDS011;15148;48.972;12.794;2023-04-10T13:19:45;9.02;;;7.50;;
27758;SDS011;15148;48.972;12.794;2023-04-10T13:24:46;7.50;;;6.53;;
27758;SDS011;15148;48.972;12.794;2023-04-10T13:29:48;6.93;;;6.20;;
27758;SDS011;15148;48.972;12.794;2023-04-10T13:34:50;7.65;;;6.82;;
27758;SDS011;15148;48.972;12.794;2023-04-10T13:39:52;8.00;;;6.90;;
27758;SDS011;15148;48.972;12.794;2023-04-10T13:44:55;8.18;;;7.38;;
27758;SDS011;15148;48.972;12.794;2023-04-10T13:49:56;7.32;;;6.60;;
27758;SDS011;15148;48.972;12.794;2023-04-10T13:54:58;8.10;;;7.30;;
27758;SDS011;15148;48.972;12.794;2023-04-10T14:00:00;8.30;;;6.97;;
27758;SDS011;15148;48.972;12.794;2023-04-10T14:05:12;8.48;;;7.25;;
27758;SDS011;15148;48.972;12.794;2023-04-10T14:10:14;7.13;;;6.43;;
27758;SDS011;15148;48.972;12.794;2023-04-10T14:15:16;7.72;;;7.03;;
27758;SDS011;15148;48.972;12.794;2023-04-10T14:20:18;8.00;;;7.20;;
27758;SDS011;15148;48.972;12.794;2023-04-10T14:25:20;7.65;;;6.38;;
27758;SDS011;15148;48.972;12.794;2023-04-10T14:30:21;8.75;;;7.45;;
27758;SDS011;15148;48.972;12.794;2023-04-10T14:35:24;7.53;;;6.47;;
27758;SDS011;15148;48.972;12.794;2023-04-10T14:40:26;7.35;;;6.40;;
27758;SDS011;15148;48.972;12.794;2023-04-10T14:45:28;7.55;;;6.80;;
27758;SDS011;15148;48.972;12.794;2023-04-10T14:50:30;9.27;;;6.85;;
27758;SDS011;15148;48.972;12.794;2023-04-10T14:55:32;7.25;;;6.55;;
27758;SDS011;15148;48.972;12.794;2023-04-10T15:00:34;7.53;;;6.72;;
27758;SDS011;15148;48.972;12.794;2023-04-10T15:05:36;8.10;;;6.60;;
27758;SDS011;15148;48.972;12.794;2023-04-10T15:10:38;7.88;;;7.00;;
27758;SDS011;15148;48.972;12.794;2023-04-10T15:15:40;7.55;;;6.75;;
27758;SDS011;15148;48.972;12.794;2023-04-10T15:20:42;6.15;;;5.55;;
27758;SDS011;15148;48.972;12.794;2023-04-10T15:25:44;12.30;;;6.88;;
27758;SDS011;15148;48.972;12.794;2023-04-10T15:30:46;7.07;;;6.38;;
27758;SDS011;15148;48.972;12.794;2023-04-10T15:35:49;7.78;;;6.82;;
27758;SDS011;15148;48.972;12.794;2023-04-10T15:40:51;9.35;;;8.35;;
27758;SDS011;15148;48.972;12.794;2023-04-10T15:45:53;8.57;;;7.68;;
27758;SDS011;15148;48.972;12.794;2023-04-10T15:51:01;8.55;;;6.57;;
27758;SDS011;15148;48.972;12.794;2023-04-10T15:56:04;7.03;;;6.32;;
27758;SDS011;15148;48.972;12.794;2023-04-10T16:01:07;7.40;;;5.80;;
27758;SDS011;15148;48.972;12.794;2023-04-10T16:06:09;7.28;;;6.18;;
27758;SDS011;15148;48.972;12.794;2023-04-10T16:11:11;7.40;;;6.53;;
27758;SDS011;15148;48.972;12.794;2023-04-10T16:16:15;7.78;;;6.53;;
27758;SDS011;15148;48.972;12.794;2023-04-10T16:21:18;7.35;;;6.45;;
27758;SDS011;15148;48.972;12.794;2023-04-10T16:26:21;7.65;;;6.63;;
27758;SDS011;15148;48.972;12.794;2023-04-10T16:31:23;6.57;;;5.90;;
27758;SDS011;15148;48.972;12.794;2023-04-10T16:36:25;8.88;;;6.65;;
27758;SDS011;15148;48.972;12.794;2023-04-10T16:41:27;7.90;;;7.05;;
27758;SDS011;15148;48.972;12.794;2023-04-10T16:46:29;6.85;;;5.97;;
27758;SDS011;15148;48.972;12.794;2023-04-10T16:51:33;6.90;;;5.90;;
27758;SDS011;15148;48.972;12.794;2023-04-10T16:56:34;6.15;;;5.55;;
27758;SDS011;15148;48.972;12.794;2023-04-10T17:01:36;6.50;;;5.63;;
27758;SDS011;15148;48.972;12.794;2023-04-10T17:06:40;8.75;;;5.90;;
27758;SDS011;15148;48.972;12.794;2023-04-10T17:11:42;8.68;;;6.75;;
27758;SDS011;15148;48.972;12.794;2023-04-10T17:16:44;8.75;;;6.70;;
27758;SDS011;15148;48.972;12.794;2023-04-10T17:21:46;8.95;;;6.90;;
27758;SDS011;15148;48.972;12.794;2023-04-10T17:26:48;7.80;;;6.13;;
27758;SDS011;15148;48.972;12.794;2023-04-10T17:31:50;6.88;;;5.70;;
27758;SDS011;15148;48.972;12.794;2023-04-10T17:36:52;9.23;;;7.20;;
27758;SDS011;15148;48.972;12.794;2023-04-10T17:41:54;7.07;;;6.13;;
27758;SDS011;15148;48.972;12.794;2023-04-10T17:46:56;9.38;;;5.80;;
27758;SDS011;15148;48.972;12.794;2023-04-10T17:51:59;7.50;;;6.30;;
27758;SDS011;15148;48.972;12.794;2023-04-10T17:57:01;6.30;;;5.38;;
27758;SDS011;15148;48.972;12.794;2023-04-10T18:02:02;6.97;;;5.65;;
27758;SDS011;15148;48.972;12.794;2023-04-10T18:07:04;6.93;;;6.13;;
27758;SDS011;15148;48.972;12.794;2023-04-10T18:12:06;6.93;;;5.95;;
27758;SDS011;15148;48.972;12.794;2023-04-10T18:17:08;8.20;;;6.22;;
27758;SDS011;15148;48.972;12.794;2023-04-10T18:22:10;7.20;;;5.80;;
27758;SDS011;15148;48.972;12.794;2023-04-10T18:27:12;7.30;;;6.10;;
27758;SDS011;15148;48.972;12.794;2023-04-10T18:32:14;7.88;;;6.18;;
27758;SDS011;15148;48.972;12.794;2023-04-10T18:37:16;8.57;;;6.53;;
27758;SDS011;15148;48.972;12.794;2023-04-10T18:42:18;6.93;;;5.93;;
27758;SDS011;15148;48.972;12.794;2023-04-10T18:47:19;7.32;;;5.80;;
27758;SDS011;15148;48.972;12.794;2023-04-10T18:52:21;7.63;;;5.95;;
27758;SDS011;15148;48.972;12.794;2023-04-10T18:57:23;7.53;;;6.38;;
27758;SDS011;15148;48.972;12.794;2023-04-10T19:02:26;8.05;;;5.93;;
27758;SDS011;15148;48.972;12.794;2023-04-10T19:07:30;8.80;;;6.57;;
27758;SDS011;15148;48.972;12.794;2023-04-10T19:12:33;7.95;;;5.72;;
27758;SDS011;15148;48.972;12.794;2023-04-10T19:17:35;8.32;;;5.95;;
27758;SDS011;15148;48.972;12.794;2023-04-10T19:22:37;7.07;;;6.30;;
27758;SDS011;15148;48.972;12.794;2023-04-10T19:27:39;8.25;;;6.30;;
27758;SDS011;15148;48.972;12.794;2023-04-10T19:32:41;8.00;;;6.18;;
27758;SDS011;15148;48.972;12.794;2023-04-10T19:37:42;7.55;;;5.88;;
27758;SDS011;15148;48.972;12.794;2023-04-10T19:42:44;8.00;;;6.50;;
27758;SDS011;15148;48.972;12.794;2023-04-10T19:47:48;8.63;;;6.90;;
27758;SDS011;15148;48.972;12.794;2023-04-10T19:52:52;7.53;;;6.20;;
27758;SDS011;15148;48.972;12.794;2023-04-10T19:57:54;7.22;;;6.25;;
27758;SDS011;15148;48.972;12.794;2023-04-10T20:02:56;7.05;;;6.00;;
27758;SDS011;15148;48.972;12.794;2023-04-10T20:07:58;7.90;;;6.00;;
27758;SDS011;15148;48.972;12.794;2023-04-10T20:13:00;7.70;;;6.00;;
27758;SDS011;15148;48.972;12.794;2023-04-10T20:18:02;7.20;;;6.20;;
27758;SDS011;15148;48.972;12.794;2023-04-10T20:23:05;6.88;;;5.70;;
27758;SDS011;15148;48.972;12.794;2023-04-10T20:28:07;5.78;;;5.18;;
27758;SDS011;15148;48.972;12.794;2023-04-10T20:33:09;6.57;;;5.50;;
27758;SDS011;15148;48.972;12.794;2023-04-10T20:38:11;8.63;;;6.43;;
27758;SDS011;15148;48.972;12.794;2023-04-10T20:43:13;7.35;;;6.22;;
27758;SDS011;15148;48.972;12.794;2023-04-10T20:48:15;7.63;;;5.63;;
27758;SDS011;15148;48.972;12.794;2023-04-10T20:53:17;6.68;;;5.97;;
27758;SDS011;15148;48.972;12.794;2023-04-10T20:58:19;7.28;;;6.57;;
27758;SDS011;15148;48.972;12.794;2023-04-10T21:03:21;8.10;;;5.57;;
27758;SDS011;15148;48.972;12.794;2023-04-10T21:08:23;6.38;;;5.57;;
27758;SDS011;15148;48.972;12.794;2023-04-10T21:13:25;6.95;;;5.70;;
27758;SDS011;15148;48.972;12.794;2023-04-10T21:18:27;6.43;;;4.95;;
27758;SDS011;15148;48.972;12.794;2023-04-10T21:23:28;6.50;;;5.20;;
27758;SDS011;15148;48.972;12.794;2023-04-10T21:28:30;7.13;;;5.38;;
27758;SDS011;15148;48.972;12.794;2023-04-10T21:33:32;5.93;;;5.18;;
27758;SDS011;15148;48.972;12.794;2023-04-10T21:38:34;6.68;;;5.70;;
27758;SDS011;15148;48.972;12.794;2023-04-10T21:43:35;5.97;;;4.95;;
27758;SDS011;15148;48.972;12.794;2023-04-10T21:48:38;6.32;;;5.60;;
27758;SDS011;15148;48.972;12.794;2023-04-10T21:53:41;5.90;;;5.30;;
27758;SDS011;15148;48.972;12.794;2023-04-10T21:58:43;7.47;;;6.00;;
27758;SDS011;15148;48.972;12.794;2023-04-10T22:03:45;6.43;;;5.47;;
27758;SDS011;15148;48.972;12.794;2023-04-10T22:08:47;5.70;;;5.10;;
27758;SDS011;15148;48.972;12.794;2023-04-10T22:13:49;6.50;;;5.40;;
27758;SDS011;15148;48.972;12.794;2023-04-10T22:18:51;5.93;;;5.05;;
27758;SDS011;15148;48.972;12.794;2023-04-10T22:23:53;6.85;;;5.15;;
27758;SDS011;15148;48.972;12.794;2023-04-10T22:28:55;6.07;;;4.70;;
27758;SDS011;15148;48.972;12.794;2023-04-10T22:33:59;6.18;;;5.15;;
27758;SDS011;15148;48.972;12.794;2023-04-10T22:39:01;6.63;;;5.22;;
27758;SDS011;15148;48.972;12.794;2023-04-10T22:44:03;6.45;;;5.28;;
27758;SDS011;15148;48.972;12.794;2023-04-10T22:49:07;6.72;;;5.55;;
27758;SDS011;15148;48.972;12.794;2023-04-10T22:54:09;7.13;;;5.70;;
27758;SDS011;15148;48.972;12.794;2023-04-10T22:59:11;6.07;;;5.18;;
27758;SDS011;15148;48.972;12.794;2023-04-10T23:04:13;9.30;;;6.45;;
27758;SDS011;15148;48.972;12.794;2023-04-10T23:09:15;6.70;;;5.72;;
27758;SDS011;15148;48.972;12.794;2023-04-10T23:14:17;7.63;;;5.90;;
27758;SDS011;15148;48.972;12.794;2023-04-10T23:19:19;7.03;;;5.57;;
27758;SDS011;15148;48.972;12.794;2023-04-10T23:24:21;8.75;;;5.78;;
27758;SDS011;15148;48.972;12.794;2023-04-10T23:29:23;7.97;;;5.40;;
27758;SDS011;15148;48.972;12.794;2023-04-10T23:34:25;6.82;;;6.00;;
27758;SDS011;15148;48.972;12.794;2023-04-10T23:39:27;7.47;;;5.70;;
27758;SDS011;15148;48.972;12.794;2023-04-10T23:44:28;5.93;;;5.32;;
27758;SDS011;15148;48.972;12.794;2023-04-10T23:49:30;6.93;;;5.82;;
27758;SDS011;15148;48.972;12.794;2023-04-10T23:54:34;7.78;;;6.60;;
27758;SDS011;15148;48.972;12.794;2023-04-10T23:59:36;8.68;;;5.60;;
